createdAt,value
2023-01-10T00:00:02.220Z,10.53
2023-01-10T00:02:30.067Z,9.60
2023-01-10T00:04:59.215Z,9.87
2023-01-10T00:07:27.014Z,10.63
2023-01-10T00:09:54.739Z,10.67
2023-01-10T00:12:39.992Z,11.57
2023-01-10T00:15:08.597Z,11.43
2023-01-10T00:17:36.318Z,12.20
2023-01-10T00:20:06.336Z,13.17
2023-01-10T00:22:34.130Z,13.17
2023-01-10T00:25:01.993Z,12.47
2023-01-10T00:27:29.812Z,12.63
2023-01-10T00:30:01.022Z,13.47
2023-01-10T00:32:28.726Z,13.97
2023-01-10T00:34:56.581Z,14.00
2023-01-10T00:37:25.700Z,13.93
2023-01-10T00:39:53.425Z,14.93
2023-01-10T00:42:38.576Z,15.00
2023-01-10T00:45:06.969Z,14.23
2023-01-10T00:47:34.681Z,14.10
2023-01-10T00:50:04.057Z,14.20
2023-01-10T00:52:33.171Z,16.03
2023-01-10T00:55:00.889Z,16.23
2023-01-10T00:57:28.598Z,15.53
2023-01-10T00:59:56.315Z,14.57
2023-01-10T01:02:24.290Z,15.83
2023-01-10T01:04:52.114Z,16.13
2023-01-10T01:07:19.887Z,15.13
2023-01-10T01:10:06.495Z,13.63
2023-01-10T01:12:34.226Z,15.10
2023-01-10T01:15:02.052Z,15.07
2023-01-10T01:17:29.771Z,16.40
2023-01-10T01:19:57.514Z,16.23
2023-01-10T01:22:25.263Z,16.13
2023-01-10T01:24:54.351Z,16.53
2023-01-10T01:27:22.115Z,15.57
2023-01-10T01:29:49.919Z,15.07
2023-01-10T01:32:17.759Z,16.13
2023-01-10T01:34:45.628Z,16.33
2023-01-10T01:37:13.371Z,14.70
2023-01-10T01:39:41.118Z,16.07
2023-01-10T01:42:23.279Z,15.07
2023-01-10T01:45:26.432Z,15.53
2023-01-10T01:47:58.205Z,15.50
2023-01-10T01:50:29.322Z,16.17
2023-01-10T01:53:01.848Z,15.87
2023-01-10T01:55:34.112Z,15.87
2023-01-10T01:58:09.769Z,14.57
2023-01-10T02:00:37.512Z,15.70
2023-01-10T02:03:07.172Z,13.97
2023-01-10T02:05:37.974Z,15.17
2023-01-10T02:08:06.414Z,15.03
2023-01-10T02:10:42.210Z,13.57
2023-01-10T02:13:15.689Z,14.63
2023-01-10T02:15:43.481Z,16.00
2023-01-10T02:18:11.982Z,15.37
2023-01-10T02:20:52.268Z,16.23
2023-01-10T02:23:52.820Z,15.57
2023-01-10T02:26:56.369Z,14.57
2023-01-10T02:30:05.919Z,15.67
2023-01-10T02:32:57.015Z,14.00
2023-01-10T02:35:50.027Z,12.97
2023-01-10T02:38:29.107Z,13.97
2023-01-10T02:41:07.175Z,14.50
2023-01-10T02:43:38.894Z,14.50
2023-01-10T02:46:09.855Z,14.60
2023-01-10T02:48:38.991Z,14.27
2023-01-10T02:51:18.673Z,13.40
2023-01-10T02:53:50.115Z,14.83
2023-01-10T02:56:44.505Z,14.87
2023-01-10T02:59:40.017Z,14.53
2023-01-10T03:02:17.853Z,13.70
2023-01-10T03:04:54.070Z,13.63
2023-01-10T03:07:29.029Z,13.53
2023-01-10T03:10:04.216Z,13.23
2023-01-10T03:12:42.301Z,12.97
2023-01-10T03:15:13.551Z,13.60
2023-01-10T03:17:44.526Z,12.93
2023-01-10T03:20:14.332Z,13.47
2023-01-10T03:22:43.257Z,12.97
2023-01-10T03:25:15.624Z,12.70
2023-01-10T03:27:52.800Z,13.33
2023-01-10T03:30:27.600Z,13.10
2023-01-10T03:32:59.937Z,12.30
2023-01-10T03:35:36.434Z,13.63
2023-01-10T03:38:11.170Z,13.80
2023-01-10T03:40:46.473Z,12.13
2023-01-10T03:43:36.783Z,13.90
2023-01-10T03:46:08.121Z,12.63
2023-01-10T03:48:38.280Z,12.50
2023-01-10T03:51:09.377Z,13.47
2023-01-10T03:53:40.281Z,12.50
2023-01-10T03:56:09.017Z,12.70
2023-01-10T03:58:36.743Z,12.57
2023-01-10T04:01:04.548Z,11.60
2023-01-10T04:03:32.287Z,12.63
2023-01-10T04:06:00.009Z,13.30
2023-01-10T04:08:29.081Z,13.00
2023-01-10T04:10:56.822Z,12.53
2023-01-10T04:13:24.511Z,13.17
2023-01-10T04:15:52.463Z,11.70
2023-01-10T04:18:20.262Z,11.33
2023-01-10T04:20:48.001Z,11.63
2023-01-10T04:23:15.715Z,12.53
2023-01-10T04:25:47.795Z,11.43
2023-01-10T04:28:15.617Z,11.53
2023-01-10T04:30:43.338Z,12.27
2023-01-10T04:33:12.581Z,12.03
2023-01-10T04:35:40.284Z,12.17
2023-01-10T04:38:08.001Z,10.83
2023-01-10T04:40:35.707Z,11.67
2023-01-10T04:43:04.795Z,10.17
2023-01-10T04:45:32.624Z,10.37
2023-01-10T04:48:00.411Z,10.70
2023-01-10T04:50:28.420Z,10.13
2023-01-10T04:52:56.174Z,10.60
2023-01-10T04:55:23.900Z,9.90
2023-01-10T04:57:51.627Z,10.00
2023-01-10T05:00:21.284Z,10.30
2023-01-10T05:02:49.177Z,9.93
2023-01-10T05:05:17.112Z,9.93
2023-01-10T05:07:47.362Z,9.13
2023-01-10T05:10:15.249Z,8.93
2023-01-10T05:12:42.958Z,8.67
2023-01-10T05:15:11.383Z,7.87
2023-01-10T05:17:40.578Z,8.40
2023-01-10T05:20:09.941Z,8.30
2023-01-10T05:22:37.663Z,7.30
2023-01-10T05:25:06.040Z,8.00
2023-01-10T05:27:33.772Z,6.50
2023-01-10T05:30:01.460Z,7.23
2023-01-10T05:32:30.463Z,6.60
2023-01-10T05:34:59.549Z,7.37
2023-01-10T05:37:27.234Z,8.10
2023-01-10T05:39:54.947Z,6.70
2023-01-10T05:42:22.677Z,6.47
2023-01-10T05:44:50.794Z,6.40
2023-01-10T05:47:18.514Z,6.37
2023-01-10T05:49:46.231Z,4.80
2023-01-10T05:52:15.717Z,5.33
2023-01-10T05:54:44.159Z,5.20
2023-01-10T05:57:11.908Z,6.77
2023-01-10T05:59:39.660Z,5.37
2023-01-10T06:02:07.502Z,4.83
2023-01-10T06:04:35.295Z,4.80
2023-01-10T06:07:03.068Z,5.63
2023-01-10T06:09:32.733Z,4.60
2023-01-10T06:12:00.528Z,5.17
2023-01-10T06:14:28.297Z,4.70
2023-01-10T06:16:56.038Z,4.87
2023-01-10T06:19:23.801Z,5.93
2023-01-10T06:21:51.502Z,4.77
2023-01-10T06:24:19.603Z,4.70
2023-01-10T06:26:48.682Z,4.77
2023-01-10T06:29:16.407Z,4.50
2023-01-10T06:31:44.161Z,4.80
2023-01-10T06:34:11.982Z,5.23
2023-01-10T06:36:39.715Z,5.20
2023-01-10T06:39:07.441Z,5.60
2023-01-10T06:41:35.183Z,5.37
2023-01-10T06:44:04.300Z,5.47
2023-01-10T06:46:32.421Z,5.50
2023-01-10T06:49:00.141Z,5.53
2023-01-10T06:51:28.585Z,5.47
2023-01-10T06:53:56.533Z,5.27
2023-01-10T06:56:24.276Z,6.40
2023-01-10T06:58:52.190Z,5.47
2023-01-10T07:01:22.517Z,5.57
2023-01-10T07:03:50.367Z,4.90
2023-01-10T07:06:18.311Z,5.07
2023-01-10T07:08:47.181Z,5.73
2023-01-10T07:11:16.746Z,5.63
2023-01-10T07:13:44.540Z,5.67
2023-01-10T07:16:14.398Z,5.33
2023-01-10T07:18:44.428Z,5.13
2023-01-10T07:21:12.909Z,5.30
2023-01-10T07:23:40.728Z,5.30
2023-01-10T07:26:11.500Z,5.00
2023-01-10T07:28:39.268Z,5.57
2023-01-10T07:31:07.534Z,5.33
2023-01-10T07:33:35.288Z,5.43
2023-01-10T07:36:04.747Z,5.03
2023-01-10T07:38:32.501Z,5.23
2023-01-10T07:41:02.683Z,5.10
2023-01-10T07:43:30.701Z,5.30
2023-01-10T07:46:00.057Z,4.93
2023-01-10T07:48:28.213Z,5.73
2023-01-10T07:50:57.229Z,5.27
2023-01-10T07:53:27.208Z,3.53
2023-01-10T07:55:55.589Z,5.37
2023-01-10T07:58:23.291Z,5.00
2023-01-10T08:00:51.143Z,5.00
2023-01-10T08:03:19.182Z,4.50
2023-01-10T08:05:46.983Z,4.10
2023-01-10T08:08:16.777Z,4.17
2023-01-10T08:10:45.903Z,4.10
2023-01-10T08:13:18.790Z,4.50
2023-01-10T08:15:50.358Z,4.13
2023-01-10T08:18:18.362Z,3.90
2023-01-10T08:20:47.213Z,4.27
2023-01-10T08:23:15.263Z,3.80
2023-01-10T08:25:43.034Z,4.00
2023-01-10T08:28:12.151Z,4.40
2023-01-10T08:30:40.250Z,3.83
2023-01-10T08:33:09.027Z,3.93
2023-01-10T08:35:40.228Z,3.63
2023-01-10T08:38:08.354Z,3.63
2023-01-10T08:40:36.177Z,3.60
2023-01-10T08:43:06.511Z,3.00
2023-01-10T08:45:37.396Z,4.20
2023-01-10T08:48:06.122Z,3.20
2023-01-10T08:50:34.194Z,3.40
2023-01-10T08:53:02.557Z,3.43
2023-01-10T08:55:32.113Z,3.03
2023-01-10T08:58:00.880Z,3.33
2023-01-10T09:00:28.885Z,3.27
2023-01-10T09:02:58.259Z,2.47
2023-01-10T09:05:28.421Z,2.90
2023-01-10T09:08:00.071Z,2.73
2023-01-10T09:10:28.599Z,2.63
2023-01-10T09:12:56.325Z,3.00
2023-01-10T09:15:25.909Z,3.00
2023-01-10T09:17:55.354Z,2.87
2023-01-10T09:20:26.020Z,2.87
2023-01-10T09:22:54.023Z,3.43
2023-01-10T09:25:22.321Z,3.47
2023-01-10T09:27:57.517Z,3.53
2023-01-10T09:30:25.551Z,4.13
2023-01-10T09:32:53.811Z,3.10
2023-01-10T09:35:21.898Z,3.87
2023-01-10T09:37:51.476Z,2.20
2023-01-10T09:40:25.429Z,3.70
2023-01-10T09:43:06.946Z,3.83
2023-01-10T09:45:43.469Z,3.60
2023-01-10T09:48:19.386Z,3.70
2023-01-10T09:51:00.306Z,4.33
2023-01-10T09:53:34.457Z,5.03
2023-01-10T09:56:04.177Z,4.47
2023-01-10T09:58:35.394Z,4.13
2023-01-10T10:01:07.312Z,4.40
2023-01-10T10:03:43.180Z,5.37
2023-01-10T10:06:13.656Z,3.47
2023-01-10T10:08:44.603Z,4.13
2023-01-10T10:11:32.197Z,3.77
2023-01-10T10:14:08.329Z,3.73
2023-01-10T10:16:47.489Z,3.87
2023-01-10T10:19:23.118Z,4.40
2023-01-10T10:21:59.828Z,3.70
2023-01-10T10:24:45.836Z,3.10
2023-01-10T10:27:22.717Z,3.83
2023-01-10T10:30:20.168Z,3.80
2023-01-10T10:32:59.286Z,4.30
2023-01-10T10:35:30.777Z,3.70
2023-01-10T10:38:03.187Z,3.80
2023-01-10T10:40:37.472Z,3.33
2023-01-10T10:43:15.644Z,3.47
2023-01-10T10:45:47.217Z,3.47
2023-01-10T10:48:19.103Z,3.70
2023-01-10T10:50:57.810Z,3.27
2023-01-10T10:53:25.665Z,3.23
2023-01-10T10:55:55.227Z,3.87
2023-01-10T10:58:23.045Z,3.33
2023-01-10T11:00:51.082Z,3.93
2023-01-10T11:03:28.281Z,3.50
2023-01-10T11:05:57.101Z,3.70
2023-01-10T11:08:25.407Z,3.53
2023-01-10T11:10:56.677Z,3.70
2023-01-10T11:13:36.593Z,4.40
2023-01-10T11:16:07.022Z,3.90
2023-01-10T11:18:35.090Z,3.30
2023-01-10T11:21:06.804Z,4.20
2023-01-10T11:23:41.858Z,3.70
2023-01-10T11:26:23.323Z,5.60
2023-01-10T11:28:53.553Z,4.13
2023-01-10T11:31:29.232Z,4.97
2023-01-10T11:33:58.502Z,4.00
2023-01-10T11:36:26.260Z,4.70
2023-01-10T11:39:03.763Z,4.53
2023-01-10T11:41:34.407Z,4.63
2023-01-10T11:44:18.538Z,5.00
2023-01-10T11:46:47.474Z,5.13
2023-01-10T11:49:20.444Z,5.53
2023-01-10T11:51:50.890Z,4.90
2023-01-10T11:54:22.391Z,4.97
2023-01-10T11:56:58.249Z,5.03
2023-01-10T11:59:27.551Z,6.17
2023-01-10T12:02:00.338Z,5.80
2023-01-10T12:04:30.720Z,5.20
2023-01-10T12:07:02.811Z,6.20
2023-01-10T12:09:42.414Z,6.20
2023-01-10T12:12:23.078Z,5.83
2023-01-10T12:14:51.690Z,5.83
2023-01-10T12:17:24.585Z,5.50
2023-01-10T12:19:53.645Z,5.03
2023-01-10T12:22:27.252Z,5.73
2023-01-10T12:24:56.428Z,4.93
2023-01-10T12:27:29.342Z,6.00
2023-01-10T12:30:04.543Z,4.77
2023-01-10T12:32:37.665Z,5.10
2023-01-10T12:35:11.853Z,5.13
2023-01-10T12:37:46.469Z,4.37
2023-01-10T12:40:21.070Z,5.07
2023-01-10T12:43:13.474Z,4.93
2023-01-10T12:45:46.859Z,5.07
2023-01-10T12:48:23.005Z,4.80
2023-01-10T12:50:58.700Z,5.30
2023-01-10T12:53:32.296Z,4.60
2023-01-10T12:56:04.846Z,3.93
2023-01-10T12:58:40.284Z,4.47
2023-01-10T13:01:09.698Z,3.90
2023-01-10T13:03:38.092Z,4.03
2023-01-10T13:06:06.157Z,4.53
2023-01-10T13:08:35.669Z,3.97
2023-01-10T13:11:04.483Z,4.07
2023-01-10T13:13:37.070Z,4.70
2023-01-10T13:16:21.073Z,4.17
2023-01-10T13:19:06.460Z,4.37
2023-01-10T13:21:35.720Z,3.57
2023-01-10T13:24:05.529Z,4.27
2023-01-10T13:26:49.461Z,4.30
2023-01-10T13:29:21.892Z,4.20
2023-01-10T13:31:57.023Z,4.57
2023-01-10T13:34:27.997Z,4.47
2023-01-10T13:36:58.896Z,4.50
2023-01-10T13:39:32.004Z,4.23
2023-01-10T13:42:44.275Z,4.93
2023-01-10T13:45:28.396Z,3.40
2023-01-10T13:48:17.948Z,3.77
2023-01-10T13:50:58.372Z,3.83
2023-01-10T13:53:46.851Z,3.60
2023-01-10T13:56:39.429Z,3.50
2023-01-10T13:59:31.369Z,2.90
2023-01-10T14:02:19.912Z,3.33
2023-01-10T14:04:51.976Z,3.63
2023-01-10T14:07:25.099Z,3.60
2023-01-10T14:09:54.156Z,3.23
2023-01-10T14:12:35.674Z,3.67
2023-01-10T14:15:08.273Z,3.33
2023-01-10T14:17:39.064Z,3.20
2023-01-10T14:20:17.662Z,2.70
2023-01-10T14:22:59.093Z,3.10
2023-01-10T14:25:27.775Z,3.57
2023-01-10T14:27:57.284Z,3.43
2023-01-10T14:30:28.700Z,4.10
2023-01-10T14:33:02.433Z,3.80
2023-01-10T14:35:37.140Z,3.97
2023-01-10T14:38:06.413Z,4.10
2023-01-10T14:40:40.966Z,3.03
2023-01-10T14:43:13.096Z,3.87
2023-01-10T14:45:49.054Z,3.97
2023-01-10T14:48:41.617Z,3.93
2023-01-10T14:51:21.038Z,4.37
2023-01-10T14:53:55.788Z,3.93
2023-01-10T14:56:25.845Z,4.13
2023-01-10T14:58:53.752Z,3.80
2023-01-10T15:01:25.665Z,4.10
2023-01-10T15:03:56.931Z,5.03
2023-01-10T15:06:25.972Z,4.90
2023-01-10T15:08:58.418Z,4.63
2023-01-10T15:11:27.785Z,4.40
2023-01-10T15:14:00.468Z,4.47
2023-01-10T15:16:29.847Z,4.43
2023-01-10T15:18:59.037Z,4.63
2023-01-10T15:21:26.960Z,3.73
2023-01-10T15:23:54.694Z,4.80
2023-01-10T15:26:28.519Z,5.43
2023-01-10T15:29:14.006Z,4.83
2023-01-10T15:31:44.434Z,4.60
2023-01-10T15:34:19.165Z,4.47
2023-01-10T15:36:50.520Z,4.50
2023-01-10T15:39:24.107Z,5.03
2023-01-10T15:41:57.899Z,4.97
2023-01-10T15:44:36.350Z,5.67
2023-01-10T15:47:04.453Z,5.20
2023-01-10T15:49:33.949Z,5.87
2023-01-10T15:52:01.705Z,6.90
2023-01-10T15:54:32.096Z,4.70
2023-01-10T15:57:07.534Z,5.27
2023-01-10T15:59:39.331Z,4.93
2023-01-10T16:02:22.615Z,4.60
2023-01-10T16:04:55.345Z,5.60
2023-01-10T16:07:27.572Z,4.67
2023-01-10T16:09:59.382Z,4.63
2023-01-10T16:12:52.953Z,5.70
2023-01-10T16:15:23.254Z,4.73
2023-01-10T16:17:51.332Z,4.90
2023-01-10T16:20:22.611Z,4.73
2023-01-10T16:22:53.382Z,4.67
2023-01-10T16:25:28.348Z,5.10
2023-01-10T16:27:56.385Z,4.50
2023-01-10T16:30:26.477Z,4.67
2023-01-10T16:32:57.190Z,5.40
2023-01-10T16:35:26.959Z,4.83
2023-01-10T16:37:57.155Z,5.17
2023-01-10T16:40:28.435Z,5.97
2023-01-10T16:43:14.058Z,5.30
2023-01-10T16:45:42.015Z,5.50
2023-01-10T16:48:10.202Z,5.87
2023-01-10T16:50:39.435Z,5.53
2023-01-10T16:53:07.245Z,5.43
2023-01-10T16:55:40.891Z,5.10
2023-01-10T16:58:09.289Z,5.10
2023-01-10T17:00:37.486Z,4.87
2023-01-10T17:03:10.156Z,5.43
2023-01-10T17:05:40.164Z,5.67
2023-01-10T17:08:15.065Z,5.53
2023-01-10T17:10:42.951Z,4.53
2023-01-10T17:13:12.041Z,5.03
2023-01-10T17:15:39.827Z,6.37
2023-01-10T17:18:08.033Z,5.03
2023-01-10T17:20:35.800Z,5.90
2023-01-10T17:23:04.842Z,5.27
2023-01-10T17:25:32.591Z,7.40
2023-01-10T17:28:00.318Z,5.77
2023-01-10T17:30:28.076Z,6.07
2023-01-10T17:32:55.830Z,5.57
2023-01-10T17:35:27.461Z,6.07
2023-01-10T17:37:56.741Z,5.77
2023-01-10T17:40:26.007Z,5.90
2023-01-10T17:42:53.821Z,5.17
2023-01-10T17:45:21.586Z,5.37
2023-01-10T17:47:50.690Z,5.80
2023-01-10T17:50:18.655Z,5.90
2023-01-10T17:52:46.361Z,7.43
2023-01-10T17:55:14.102Z,6.33
2023-01-10T17:57:43.313Z,6.13
2023-01-10T18:00:12.249Z,6.53
2023-01-10T18:02:40.056Z,6.50
2023-01-10T18:05:08.550Z,5.90
2023-01-10T18:07:36.318Z,6.20
2023-01-10T18:10:04.441Z,6.70
2023-01-10T18:12:32.157Z,6.47
2023-01-10T18:15:01.250Z,6.93
2023-01-10T18:17:29.025Z,6.93
2023-01-10T18:19:56.951Z,6.67
2023-01-10T18:22:42.132Z,7.40
2023-01-10T18:25:10.174Z,7.33
2023-01-10T18:27:37.893Z,6.63
2023-01-10T18:30:08.193Z,6.87
2023-01-10T18:32:36.038Z,7.30
2023-01-10T18:35:03.842Z,6.80
2023-01-10T18:37:31.578Z,6.90
2023-01-10T18:39:59.357Z,6.93
2023-01-10T18:42:27.070Z,6.53
2023-01-10T18:44:54.786Z,6.37
2023-01-10T18:47:23.889Z,5.97
2023-01-10T18:49:51.595Z,6.90
2023-01-10T18:52:21.053Z,7.27
2023-01-10T18:54:48.802Z,6.20
2023-01-10T18:57:16.531Z,6.73
2023-01-10T18:59:44.281Z,7.70
2023-01-10T19:02:16.904Z,6.53
2023-01-10T19:04:46.077Z,6.30
2023-01-10T19:07:13.811Z,6.70
2023-01-10T19:09:41.639Z,7.90
2023-01-10T19:12:09.405Z,7.33
2023-01-10T19:14:37.169Z,6.83
2023-01-10T19:17:04.908Z,6.87
2023-01-10T19:19:32.621Z,7.07
2023-01-10T19:22:01.732Z,7.00
2023-01-10T19:24:32.736Z,7.13
2023-01-10T19:27:00.483Z,7.60
2023-01-10T19:29:30.362Z,7.63
2023-01-10T19:31:58.691Z,7.07
2023-01-10T19:34:26.443Z,7.70
2023-01-10T19:36:54.186Z,7.53
2023-01-10T19:39:23.296Z,7.10
2023-01-10T19:41:51.047Z,7.00
2023-01-10T19:44:18.745Z,8.00
2023-01-10T19:46:47.605Z,8.33
2023-01-10T19:49:17.702Z,8.37
2023-01-10T19:51:49.255Z,7.33
2023-01-10T19:54:16.963Z,7.60
2023-01-10T19:56:46.273Z,6.80
2023-01-10T19:59:14.868Z,7.53
2023-01-10T20:01:42.740Z,7.17
2023-01-10T20:04:11.006Z,6.27
2023-01-10T20:06:40.951Z,7.50
2023-01-10T20:09:11.376Z,8.10
2023-01-10T20:11:40.515Z,6.73
2023-01-10T20:14:13.380Z,6.80
2023-01-10T20:16:41.654Z,8.27
2023-01-10T20:19:10.544Z,6.40
2023-01-10T20:21:39.485Z,6.50
2023-01-10T20:24:11.873Z,6.80
2023-01-10T20:26:39.834Z,6.77
2023-01-10T20:29:08.997Z,7.40
2023-01-10T20:31:36.821Z,7.00
2023-01-10T20:34:04.700Z,6.83
2023-01-10T20:36:33.431Z,6.53
2023-01-10T20:39:01.270Z,6.67
2023-01-10T20:41:30.623Z,6.57
2023-01-10T20:43:59.109Z,6.63
2023-01-10T20:46:30.736Z,7.00
2023-01-10T20:49:02.261Z,5.47
2023-01-10T20:51:32.810Z,6.77
2023-01-10T20:54:01.096Z,6.53
2023-01-10T20:56:31.376Z,5.87
2023-01-10T20:58:59.882Z,8.17
2023-01-10T21:01:35.182Z,7.10
2023-01-10T21:04:04.790Z,6.73
2023-01-10T21:06:33.060Z,6.47
2023-01-10T21:09:01.128Z,5.93
2023-01-10T21:11:28.898Z,5.70
2023-01-10T21:13:56.718Z,5.83
2023-01-10T21:16:25.532Z,4.67
2023-01-10T21:18:54.827Z,5.80
2023-01-10T21:21:23.550Z,5.70
2023-01-10T21:23:51.443Z,5.23
2023-01-10T21:26:19.462Z,5.17
2023-01-10T21:28:47.864Z,5.10
2023-01-10T21:31:17.684Z,4.50
2023-01-10T21:33:45.589Z,4.07
2023-01-10T21:36:14.848Z,4.73
2023-01-10T21:38:43.925Z,4.70
2023-01-10T21:41:14.607Z,4.40
2023-01-10T21:43:44.546Z,3.93
2023-01-10T21:46:12.985Z,4.30
2023-01-10T21:48:40.979Z,3.63
2023-01-10T21:51:08.715Z,4.03
2023-01-10T21:53:41.306Z,3.87
2023-01-10T21:56:09.460Z,3.17
2023-01-10T21:58:37.198Z,3.87
2023-01-10T22:01:05.057Z,2.97
2023-01-10T22:03:32.881Z,3.30
2023-01-10T22:06:02.518Z,2.93
2023-01-10T22:08:30.293Z,3.13
2023-01-10T22:10:59.381Z,2.63
2023-01-10T22:13:27.336Z,2.83
2023-01-10T22:15:59.031Z,3.27
2023-01-10T22:18:26.842Z,2.60
2023-01-10T22:20:55.705Z,2.63
2023-01-10T22:23:24.389Z,2.67
2023-01-10T22:26:04.584Z,2.20
2023-01-10T22:28:32.981Z,2.20
2023-01-10T22:31:01.253Z,2.33
2023-01-10T22:33:29.833Z,2.73
2023-01-10T22:35:58.283Z,2.50
2023-01-10T22:38:26.009Z,2.03
2023-01-10T22:40:53.754Z,2.23
2023-01-10T22:43:22.829Z,2.43
2023-01-10T22:45:50.555Z,2.03
2023-01-10T22:48:18.321Z,2.03
2023-01-10T22:50:49.719Z,1.80
2023-01-10T22:53:17.439Z,1.73
2023-01-10T22:55:45.190Z,1.63
2023-01-10T22:58:12.953Z,1.70
2023-01-10T23:00:42.089Z,1.90
2023-01-10T23:03:09.810Z,2.27
2023-01-10T23:05:37.584Z,2.53
2023-01-10T23:08:05.658Z,1.83
2023-01-10T23:10:33.473Z,2.50
2023-01-10T23:13:02.097Z,2.30
2023-01-10T23:15:30.696Z,2.13
2023-01-10T23:17:59.959Z,2.10
2023-01-10T23:20:27.762Z,1.77
2023-01-10T23:22:55.469Z,2.50
2023-01-10T23:25:23.221Z,2.07
2023-01-10T23:27:51.366Z,1.93
2023-01-10T23:30:19.360Z,2.23
2023-01-10T23:32:47.061Z,1.60
2023-01-10T23:35:16.258Z,2.03
2023-01-10T23:37:44.041Z,2.00
2023-01-10T23:40:13.034Z,1.53
2023-01-10T23:42:40.797Z,2.00
2023-01-10T23:45:09.837Z,2.20
2023-01-10T23:47:37.569Z,2.00
2023-01-10T23:50:06.319Z,1.97
2023-01-10T23:52:35.415Z,1.93
2023-01-10T23:55:03.149Z,2.07
2023-01-10T23:57:30.850Z,2.23
2023-01-10T23:59:59.873Z,1.73
